sensor_id;sensor_type;location;lat;lon;timestamp;P1;durP1;ratioP1;P2;durP2;ratioP2
5042;SDS011;2540;50.928;6.856;2024-03-22T00:02:21;25.80;;;10.40;;
5042;SDS011;2540;50.928;6.856;2024-03-22T00:04:46;27.27;;;11.13;;
5042;SDS011;2540;50.928;6.856;2024-03-22T00:07:11;30.93;;;11.67;;
5042;SDS011;2540;50.928;6.856;2024-03-22T00:09:37;25.80;;;11.40;;
5042;SDS011;2540;50.928;6.856;2024-03-22T00:12:02;31.20;;;12.30;;
5042;SDS011;2540;50.928;6.856;2024-03-22T00:14:27;26.40;;;10.47;;
5042;SDS011;2540;50.928;6.856;2024-03-22T00:16:53;24.00;;;10.30;;
5042;SDS011;2540;50.928;6.856;2024-03-22T00:19:18;25.60;;;9.73;;
5042;SDS011;2540;50.928;6.856;2024-03-22T00:21:43;20.37;;;8.93;;
5042;SDS011;2540;50.928;6.856;2024-03-22T00:24:09;22.77;;;9.57;;
5042;SDS011;2540;50.928;6.856;2024-03-22T00:26:34;23.37;;;9.27;;
5042;SDS011;2540;50.928;6.856;2024-03-22T00:28:59;20.37;;;9.23;;
5042;SDS011;2540;50.928;6.856;2024-03-22T00:31:24;27.07;;;10.40;;
5042;SDS011;2540;50.928;6.856;2024-03-22T00:33:50;23.67;;;8.90;;
5042;SDS011;2540;50.928;6.856;2024-03-22T00:36:15;26.47;;;9.77;;
5042;SDS011;2540;50.928;6.856;2024-03-22T00:38:40;20.60;;;8.23;;
5042;SDS011;2540;50.928;6.856;2024-03-22T00:41:06;24.00;;;10.20;;
5042;SDS011;2540;50.928;6.856;2024-03-22T00:43:31;27.83;;;9.77;;
5042;SDS011;2540;50.928;6.856;2024-03-22T00:45:57;26.80;;;10.53;;
5042;SDS011;2540;50.928;6.856;2024-03-22T00:48:23;20.87;;;9.53;;
5042;SDS011;2540;50.928;6.856;2024-03-22T00:50:48;25.37;;;10.83;;
5042;SDS011;2540;50.928;6.856;2024-03-22T00:53:14;29.43;;;9.40;;
5042;SDS011;2540;50.928;6.856;2024-03-22T00:55:39;25.70;;;9.87;;
5042;SDS011;2540;50.928;6.856;2024-03-22T00:58:04;28.23;;;9.83;;
5042;SDS011;2540;50.928;6.856;2024-03-22T01:00:29;22.10;;;9.70;;
5042;SDS011;2540;50.928;6.856;2024-03-22T01:02:55;26.00;;;9.60;;
5042;SDS011;2540;50.928;6.856;2024-03-22T01:05:20;21.67;;;8.50;;
5042;SDS011;2540;50.928;6.856;2024-03-22T01:07:45;22.97;;;9.30;;
5042;SDS011;2540;50.928;6.856;2024-03-22T01:10:11;17.90;;;8.70;;
5042;SDS011;2540;50.928;6.856;2024-03-22T01:12:37;22.07;;;10.30;;
5042;SDS011;2540;50.928;6.856;2024-03-22T01:15:04;24.20;;;9.17;;
5042;SDS011;2540;50.928;6.856;2024-03-22T01:17:30;23.67;;;8.27;;
5042;SDS011;2540;50.928;6.856;2024-03-22T01:19:55;18.33;;;8.20;;
5042;SDS011;2540;50.928;6.856;2024-03-22T01:22:20;27.53;;;9.30;;
5042;SDS011;2540;50.928;6.856;2024-03-22T01:24:46;24.10;;;9.27;;
5042;SDS011;2540;50.928;6.856;2024-03-22T01:27:11;26.63;;;9.90;;
5042;SDS011;2540;50.928;6.856;2024-03-22T01:29:37;14.20;;;7.93;;
5042;SDS011;2540;50.928;6.856;2024-03-22T01:32:02;23.60;;;8.90;;
5042;SDS011;2540;50.928;6.856;2024-03-22T01:34:28;21.60;;;9.53;;
5042;SDS011;2540;50.928;6.856;2024-03-22T01:36:53;21.00;;;9.17;;
5042;SDS011;2540;50.928;6.856;2024-03-22T01:39:18;22.33;;;9.47;;
5042;SDS011;2540;50.928;6.856;2024-03-22T01:41:46;18.70;;;9.03;;
5042;SDS011;2540;50.928;6.856;2024-03-22T01:44:12;19.40;;;8.40;;
5042;SDS011;2540;50.928;6.856;2024-03-22T01:46:38;19.00;;;9.10;;
5042;SDS011;2540;50.928;6.856;2024-03-22T01:49:04;18.83;;;8.70;;
5042;SDS011;2540;50.928;6.856;2024-03-22T01:51:30;19.73;;;8.83;;
5042;SDS011;2540;50.928;6.856;2024-03-22T01:53:55;23.17;;;9.53;;
5042;SDS011;2540;50.928;6.856;2024-03-22T01:56:21;18.23;;;8.70;;
5042;SDS011;2540;50.928;6.856;2024-03-22T01:58:46;19.20;;;8.73;;
5042;SDS011;2540;50.928;6.856;2024-03-22T02:01:12;19.57;;;8.57;;
5042;SDS011;2540;50.928;6.856;2024-03-22T02:03:38;17.20;;;8.40;;
5042;SDS011;2540;50.928;6.856;2024-03-22T02:06:03;21.37;;;8.43;;
5042;SDS011;2540;50.928;6.856;2024-03-22T02:08:29;17.17;;;8.60;;
5042;SDS011;2540;50.928;6.856;2024-03-22T02:10:54;21.40;;;8.20;;
5042;SDS011;2540;50.928;6.856;2024-03-22T02:13:20;20.67;;;9.60;;
5042;SDS011;2540;50.928;6.856;2024-03-22T02:15:45;19.07;;;8.27;;
5042;SDS011;2540;50.928;6.856;2024-03-22T02:18:10;22.83;;;9.47;;
5042;SDS011;2540;50.928;6.856;2024-03-22T02:20:36;20.97;;;9.70;;
5042;SDS011;2540;50.928;6.856;2024-03-22T02:23:01;20.70;;;8.50;;
5042;SDS011;2540;50.928;6.856;2024-03-22T02:25:26;26.10;;;8.67;;
5042;SDS011;2540;50.928;6.856;2024-03-22T02:27:52;20.77;;;9.30;;
5042;SDS011;2540;50.928;6.856;2024-03-22T02:30:17;20.70;;;8.57;;
5042;SDS011;2540;50.928;6.856;2024-03-22T02:32:42;24.10;;;8.93;;
5042;SDS011;2540;50.928;6.856;2024-03-22T02:35:08;23.13;;;9.17;;
5042;SDS011;2540;50.928;6.856;2024-03-22T02:37:34;18.70;;;8.70;;
5042;SDS011;2540;50.928;6.856;2024-03-22T02:39:59;22.27;;;10.17;;
5042;SDS011;2540;50.928;6.856;2024-03-22T02:42:24;18.30;;;8.60;;
5042;SDS011;2540;50.928;6.856;2024-03-22T02:44:50;17.87;;;8.90;;
5042;SDS011;2540;50.928;6.856;2024-03-22T02:47:15;19.87;;;8.50;;
5042;SDS011;2540;50.928;6.856;2024-03-22T02:49:40;18.60;;;8.23;;
5042;SDS011;2540;50.928;6.856;2024-03-22T02:52:06;25.50;;;9.30;;
5042;SDS011;2540;50.928;6.856;2024-03-22T02:54:31;16.83;;;8.30;;
5042;SDS011;2540;50.928;6.856;2024-03-22T02:56:57;21.97;;;8.80;;
5042;SDS011;2540;50.928;6.856;2024-03-22T02:59:25;21.47;;;9.17;;
5042;SDS011;2540;50.928;6.856;2024-03-22T03:01:51;21.30;;;9.03;;
5042;SDS011;2540;50.928;6.856;2024-03-22T03:04:16;22.90;;;9.97;;
5042;SDS011;2540;50.928;6.856;2024-03-22T03:06:41;21.47;;;8.80;;
5042;SDS011;2540;50.928;6.856;2024-03-22T03:09:07;19.23;;;8.87;;
5042;SDS011;2540;50.928;6.856;2024-03-22T03:11:36;22.70;;;9.20;;
5042;SDS011;2540;50.928;6.856;2024-03-22T03:14:02;19.57;;;8.90;;
5042;SDS011;2540;50.928;6.856;2024-03-22T03:16:27;22.53;;;9.57;;
5042;SDS011;2540;50.928;6.856;2024-03-22T03:18:52;20.00;;;9.63;;
5042;SDS011;2540;50.928;6.856;2024-03-22T03:21:18;19.00;;;8.60;;
5042;SDS011;2540;50.928;6.856;2024-03-22T03:23:43;20.57;;;8.73;;
5042;SDS011;2540;50.928;6.856;2024-03-22T03:26:08;27.23;;;11.93;;
5042;SDS011;2540;50.928;6.856;2024-03-22T03:28:34;18.87;;;8.47;;
5042;SDS011;2540;50.928;6.856;2024-03-22T03:30:59;19.23;;;10.10;;
5042;SDS011;2540;50.928;6.856;2024-03-22T03:33:24;20.70;;;9.67;;
5042;SDS011;2540;50.928;6.856;2024-03-22T03:35:50;22.33;;;9.27;;
5042;SDS011;2540;50.928;6.856;2024-03-22T03:38:15;18.73;;;9.00;;
5042;SDS011;2540;50.928;6.856;2024-03-22T03:40:40;20.27;;;7.90;;
5042;SDS011;2540;50.928;6.856;2024-03-22T03:43:05;20.10;;;9.10;;
5042;SDS011;2540;50.928;6.856;2024-03-22T03:45:31;20.57;;;9.20;;
5042;SDS011;2540;50.928;6.856;2024-03-22T03:47:56;19.50;;;9.20;;
5042;SDS011;2540;50.928;6.856;2024-03-22T03:50:21;19.40;;;8.17;;
5042;SDS011;2540;50.928;6.856;2024-03-22T03:52:47;19.30;;;8.93;;
5042;SDS011;2540;50.928;6.856;2024-03-22T03:55:12;24.43;;;9.23;;
5042;SDS011;2540;50.928;6.856;2024-03-22T03:57:38;17.53;;;8.50;;
5042;SDS011;2540;50.928;6.856;2024-03-22T04:00:03;17.00;;;8.67;;
5042;SDS011;2540;50.928;6.856;2024-03-22T04:02:29;15.70;;;7.90;;
5042;SDS011;2540;50.928;6.856;2024-03-22T04:04:55;18.47;;;8.53;;
5042;SDS011;2540;50.928;6.856;2024-03-22T04:07:20;17.67;;;9.23;;
5042;SDS011;2540;50.928;6.856;2024-03-22T04:09:46;19.30;;;9.23;;
5042;SDS011;2540;50.928;6.856;2024-03-22T04:12:11;18.13;;;9.77;;
5042;SDS011;2540;50.928;6.856;2024-03-22T04:14:37;18.10;;;9.07;;
5042;SDS011;2540;50.928;6.856;2024-03-22T04:17:02;17.47;;;8.20;;
5042;SDS011;2540;50.928;6.856;2024-03-22T04:19:27;24.93;;;9.10;;
5042;SDS011;2540;50.928;6.856;2024-03-22T04:21:53;18.20;;;7.60;;
5042;SDS011;2540;50.928;6.856;2024-03-22T04:24:18;17.43;;;8.10;;
5042;SDS011;2540;50.928;6.856;2024-03-22T04:26:43;19.40;;;7.90;;
5042;SDS011;2540;50.928;6.856;2024-03-22T04:29:09;16.60;;;8.37;;
5042;SDS011;2540;50.928;6.856;2024-03-22T04:31:35;18.17;;;8.90;;
5042;SDS011;2540;50.928;6.856;2024-03-22T04:34:00;16.10;;;7.60;;
5042;SDS011;2540;50.928;6.856;2024-03-22T04:36:25;18.33;;;8.80;;
5042;SDS011;2540;50.928;6.856;2024-03-22T04:38:51;17.90;;;7.77;;
5042;SDS011;2540;50.928;6.856;2024-03-22T04:41:16;14.23;;;7.77;;
5042;SDS011;2540;50.928;6.856;2024-03-22T04:43:42;18.53;;;8.00;;
5042;SDS011;2540;50.928;6.856;2024-03-22T04:46:07;16.50;;;8.43;;
5042;SDS011;2540;50.928;6.856;2024-03-22T04:48:33;16.57;;;7.90;;
5042;SDS011;2540;50.928;6.856;2024-03-22T04:50:58;24.87;;;7.97;;
5042;SDS011;2540;50.928;6.856;2024-03-22T04:53:23;16.50;;;7.83;;
5042;SDS011;2540;50.928;6.856;2024-03-22T04:55:49;21.70;;;8.23;;
5042;SDS011;2540;50.928;6.856;2024-03-22T04:58:15;15.27;;;7.80;;
5042;SDS011;2540;50.928;6.856;2024-03-22T05:00:44;13.73;;;7.87;;
5042;SDS011;2540;50.928;6.856;2024-03-22T05:03:10;12.93;;;6.93;;
5042;SDS011;2540;50.928;6.856;2024-03-22T05:05:36;22.13;;;7.57;;
5042;SDS011;2540;50.928;6.856;2024-03-22T05:08:02;13.70;;;7.20;;
5042;SDS011;2540;50.928;6.856;2024-03-22T05:10:29;14.40;;;7.00;;
5042;SDS011;2540;50.928;6.856;2024-03-22T05:12:55;18.57;;;7.73;;
5042;SDS011;2540;50.928;6.856;2024-03-22T05:15:21;16.40;;;8.47;;
5042;SDS011;2540;50.928;6.856;2024-03-22T05:17:46;18.37;;;8.13;;
5042;SDS011;2540;50.928;6.856;2024-03-22T05:20:11;20.27;;;8.30;;
5042;SDS011;2540;50.928;6.856;2024-03-22T05:22:37;18.50;;;8.33;;
5042;SDS011;2540;50.928;6.856;2024-03-22T05:25:02;16.13;;;9.30;;
5042;SDS011;2540;50.928;6.856;2024-03-22T05:27:28;17.90;;;8.20;;
5042;SDS011;2540;50.928;6.856;2024-03-22T05:29:55;20.13;;;7.87;;
5042;SDS011;2540;50.928;6.856;2024-03-22T05:32:20;18.60;;;8.30;;
5042;SDS011;2540;50.928;6.856;2024-03-22T05:34:45;17.90;;;8.80;;
5042;SDS011;2540;50.928;6.856;2024-03-22T05:37:11;21.90;;;9.00;;
5042;SDS011;2540;50.928;6.856;2024-03-22T05:39:36;21.60;;;9.43;;
5042;SDS011;2540;50.928;6.856;2024-03-22T05:42:02;17.63;;;8.90;;
5042;SDS011;2540;50.928;6.856;2024-03-22T05:44:27;16.83;;;8.60;;
5042;SDS011;2540;50.928;6.856;2024-03-22T05:46:52;16.50;;;8.73;;
5042;SDS011;2540;50.928;6.856;2024-03-22T05:49:17;19.00;;;9.40;;
5042;SDS011;2540;50.928;6.856;2024-03-22T05:51:43;16.33;;;8.63;;
5042;SDS011;2540;50.928;6.856;2024-03-22T05:54:09;18.13;;;8.10;;
5042;SDS011;2540;50.928;6.856;2024-03-22T05:56:35;20.50;;;9.10;;
5042;SDS011;2540;50.928;6.856;2024-03-22T05:59:00;23.20;;;9.40;;
5042;SDS011;2540;50.928;6.856;2024-03-22T06:01:26;20.63;;;9.67;;
5042;SDS011;2540;50.928;6.856;2024-03-22T06:03:51;25.23;;;9.50;;
5042;SDS011;2540;50.928;6.856;2024-03-22T06:06:16;22.33;;;10.97;;
5042;SDS011;2540;50.928;6.856;2024-03-22T06:08:41;22.40;;;9.93;;
5042;SDS011;2540;50.928;6.856;2024-03-22T06:11:10;19.27;;;9.53;;
5042;SDS011;2540;50.928;6.856;2024-03-22T06:13:35;20.53;;;9.77;;
5042;SDS011;2540;50.928;6.856;2024-03-22T06:16:01;21.00;;;9.43;;
5042;SDS011;2540;50.928;6.856;2024-03-22T06:18:26;25.63;;;9.67;;
5042;SDS011;2540;50.928;6.856;2024-03-22T06:20:52;23.80;;;10.83;;
5042;SDS011;2540;50.928;6.856;2024-03-22T06:23:19;17.83;;;8.60;;
5042;SDS011;2540;50.928;6.856;2024-03-22T06:25:51;24.30;;;10.07;;
5042;SDS011;2540;50.928;6.856;2024-03-22T06:28:19;22.33;;;10.00;;
5042;SDS011;2540;50.928;6.856;2024-03-22T06:30:44;19.33;;;9.93;;
5042;SDS011;2540;50.928;6.856;2024-03-22T06:33:10;21.80;;;10.40;;
5042;SDS011;2540;50.928;6.856;2024-03-22T06:35:35;17.57;;;9.73;;
5042;SDS011;2540;50.928;6.856;2024-03-22T06:38:00;20.03;;;10.50;;
5042;SDS011;2540;50.928;6.856;2024-03-22T06:40:27;17.97;;;9.93;;
5042;SDS011;2540;50.928;6.856;2024-03-22T06:42:53;15.90;;;8.30;;
5042;SDS011;2540;50.928;6.856;2024-03-22T06:45:19;18.73;;;9.80;;
5042;SDS011;2540;50.928;6.856;2024-03-22T06:47:44;22.20;;;9.50;;
5042;SDS011;2540;50.928;6.856;2024-03-22T06:50:09;22.83;;;10.00;;
5042;SDS011;2540;50.928;6.856;2024-03-22T06:52:35;24.60;;;10.60;;
5042;SDS011;2540;50.928;6.856;2024-03-22T06:55:00;17.63;;;9.33;;
5042;SDS011;2540;50.928;6.856;2024-03-22T06:57:25;20.63;;;10.07;;
5042;SDS011;2540;50.928;6.856;2024-03-22T06:59:51;17.37;;;9.63;;
5042;SDS011;2540;50.928;6.856;2024-03-22T07:02:16;23.57;;;11.20;;
5042;SDS011;2540;50.928;6.856;2024-03-22T07:04:43;18.73;;;9.40;;
5042;SDS011;2540;50.928;6.856;2024-03-22T07:07:08;21.70;;;10.90;;
5042;SDS011;2540;50.928;6.856;2024-03-22T07:09:34;22.63;;;10.67;;
5042;SDS011;2540;50.928;6.856;2024-03-22T07:11:59;25.47;;;12.10;;
5042;SDS011;2540;50.928;6.856;2024-03-22T07:14:24;18.40;;;10.10;;
5042;SDS011;2540;50.928;6.856;2024-03-22T07:16:50;29.63;;;10.80;;
5042;SDS011;2540;50.928;6.856;2024-03-22T07:19:18;24.40;;;11.37;;
5042;SDS011;2540;50.928;6.856;2024-03-22T07:21:43;18.53;;;10.37;;
5042;SDS011;2540;50.928;6.856;2024-03-22T07:24:08;22.17;;;10.87;;
5042;SDS011;2540;50.928;6.856;2024-03-22T07:26:34;17.90;;;9.30;;
5042;SDS011;2540;50.928;6.856;2024-03-22T07:28:59;23.30;;;10.60;;
5042;SDS011;2540;50.928;6.856;2024-03-22T07:31:25;27.03;;;13.03;;
5042;SDS011;2540;50.928;6.856;2024-03-22T07:33:50;25.10;;;11.47;;
5042;SDS011;2540;50.928;6.856;2024-03-22T07:36:15;27.50;;;11.40;;
5042;SDS011;2540;50.928;6.856;2024-03-22T07:38:44;31.60;;;13.97;;
5042;SDS011;2540;50.928;6.856;2024-03-22T07:41:10;30.90;;;13.10;;
5042;SDS011;2540;50.928;6.856;2024-03-22T07:43:35;25.17;;;11.77;;
5042;SDS011;2540;50.928;6.856;2024-03-22T07:46:00;27.33;;;12.60;;
5042;SDS011;2540;50.928;6.856;2024-03-22T07:48:26;25.50;;;13.83;;
5042;SDS011;2540;50.928;6.856;2024-03-22T07:50:57;26.13;;;12.10;;
5042;SDS011;2540;50.928;6.856;2024-03-22T07:53:23;24.67;;;12.43;;
5042;SDS011;2540;50.928;6.856;2024-03-22T07:55:49;26.93;;;12.43;;
5042;SDS011;2540;50.928;6.856;2024-03-22T07:58:14;30.20;;;12.10;;
5042;SDS011;2540;50.928;6.856;2024-03-22T08:00:40;28.00;;;12.00;;
5042;SDS011;2540;50.928;6.856;2024-03-22T08:03:05;27.20;;;11.47;;
5042;SDS011;2540;50.928;6.856;2024-03-22T08:05:31;21.70;;;10.90;;
5042;SDS011;2540;50.928;6.856;2024-03-22T08:07:56;24.73;;;11.30;;
5042;SDS011;2540;50.928;6.856;2024-03-22T08:10:21;25.50;;;11.00;;
5042;SDS011;2540;50.928;6.856;2024-03-22T08:12:48;29.13;;;10.93;;
5042;SDS011;2540;50.928;6.856;2024-03-22T08:15:13;30.43;;;11.73;;
5042;SDS011;2540;50.928;6.856;2024-03-22T08:17:39;26.70;;;11.27;;
5042;SDS011;2540;50.928;6.856;2024-03-22T08:20:04;28.90;;;11.90;;
5042;SDS011;2540;50.928;6.856;2024-03-22T08:22:30;28.83;;;11.87;;
5042;SDS011;2540;50.928;6.856;2024-03-22T08:24:55;29.07;;;10.93;;
5042;SDS011;2540;50.928;6.856;2024-03-22T08:27:21;28.30;;;11.53;;
5042;SDS011;2540;50.928;6.856;2024-03-22T08:29:46;21.53;;;10.10;;
5042;SDS011;2540;50.928;6.856;2024-03-22T08:32:12;21.90;;;10.60;;
5042;SDS011;2540;50.928;6.856;2024-03-22T08:34:37;23.10;;;10.20;;
5042;SDS011;2540;50.928;6.856;2024-03-22T08:37:02;21.70;;;11.00;;
5042;SDS011;2540;50.928;6.856;2024-03-22T08:39:28;23.93;;;10.40;;
5042;SDS011;2540;50.928;6.856;2024-03-22T08:41:54;17.83;;;10.43;;
5042;SDS011;2540;50.928;6.856;2024-03-22T08:44:20;19.60;;;9.37;;
5042;SDS011;2540;50.928;6.856;2024-03-22T08:46:45;18.53;;;8.37;;
5042;SDS011;2540;50.928;6.856;2024-03-22T08:49:11;17.83;;;9.03;;
5042;SDS011;2540;50.928;6.856;2024-03-22T08:51:37;17.20;;;8.57;;
5042;SDS011;2540;50.928;6.856;2024-03-22T08:54:02;13.40;;;8.10;;
5042;SDS011;2540;50.928;6.856;2024-03-22T08:56:28;22.67;;;9.80;;
5042;SDS011;2540;50.928;6.856;2024-03-22T08:58:54;16.80;;;7.63;;
5042;SDS011;2540;50.928;6.856;2024-03-22T09:01:20;13.80;;;7.50;;
5042;SDS011;2540;50.928;6.856;2024-03-22T09:03:45;18.97;;;7.50;;
5042;SDS011;2540;50.928;6.856;2024-03-22T09:06:11;18.73;;;7.20;;
5042;SDS011;2540;50.928;6.856;2024-03-22T09:08:37;15.43;;;8.17;;
5042;SDS011;2540;50.928;6.856;2024-03-22T09:11:02;16.23;;;5.87;;
5042;SDS011;2540;50.928;6.856;2024-03-22T09:13:28;14.83;;;6.90;;
5042;SDS011;2540;50.928;6.856;2024-03-22T09:15:57;10.87;;;6.43;;
5042;SDS011;2540;50.928;6.856;2024-03-22T09:18:23;13.50;;;5.93;;
5042;SDS011;2540;50.928;6.856;2024-03-22T09:20:48;14.00;;;6.80;;
5042;SDS011;2540;50.928;6.856;2024-03-22T09:23:13;9.87;;;5.93;;
5042;SDS011;2540;50.928;6.856;2024-03-22T09:25:38;13.90;;;5.87;;
5042;SDS011;2540;50.928;6.856;2024-03-22T09:28:04;7.87;;;4.73;;
5042;SDS011;2540;50.928;6.856;2024-03-22T09:30:29;12.53;;;6.23;;
5042;SDS011;2540;50.928;6.856;2024-03-22T09:32:54;12.03;;;5.20;;
5042;SDS011;2540;50.928;6.856;2024-03-22T09:35:20;9.80;;;4.87;;
5042;SDS011;2540;50.928;6.856;2024-03-22T09:37:46;11.77;;;5.60;;
5042;SDS011;2540;50.928;6.856;2024-03-22T09:40:11;9.37;;;5.23;;
5042;SDS011;2540;50.928;6.856;2024-03-22T09:42:37;10.00;;;4.83;;
5042;SDS011;2540;50.928;6.856;2024-03-22T09:45:04;12.73;;;5.53;;
5042;SDS011;2540;50.928;6.856;2024-03-22T09:47:33;14.20;;;5.53;;
5042;SDS011;2540;50.928;6.856;2024-03-22T09:49:58;16.67;;;6.10;;
5042;SDS011;2540;50.928;6.856;2024-03-22T09:52:25;12.90;;;5.67;;
5042;SDS011;2540;50.928;6.856;2024-03-22T09:54:52;13.40;;;5.03;;
5042;SDS011;2540;50.928;6.856;2024-03-22T09:57:18;8.90;;;4.57;;
5042;SDS011;2540;50.928;6.856;2024-03-22T09:59:44;13.50;;;4.87;;
5042;SDS011;2540;50.928;6.856;2024-03-22T10:02:11;8.67;;;5.03;;
5042;SDS011;2540;50.928;6.856;2024-03-22T10:04:37;11.60;;;4.53;;
5042;SDS011;2540;50.928;6.856;2024-03-22T10:07:03;9.40;;;5.10;;
5042;SDS011;2540;50.928;6.856;2024-03-22T10:09:29;9.57;;;4.90;;
5042;SDS011;2540;50.928;6.856;2024-03-22T10:11:57;5.97;;;3.70;;
5042;SDS011;2540;50.928;6.856;2024-03-22T10:14:23;11.77;;;5.40;;
5042;SDS011;2540;50.928;6.856;2024-03-22T10:16:51;8.03;;;4.70;;
5042;SDS011;2540;50.928;6.856;2024-03-22T10:19:21;12.40;;;5.50;;
5042;SDS011;2540;50.928;6.856;2024-03-22T10:21:47;10.73;;;5.10;;
5042;SDS011;2540;50.928;6.856;2024-03-22T10:24:13;15.73;;;5.20;;
5042;SDS011;2540;50.928;6.856;2024-03-22T10:26:39;10.80;;;4.43;;
5042;SDS011;2540;50.928;6.856;2024-03-22T10:29:07;7.43;;;4.37;;
5042;SDS011;2540;50.928;6.856;2024-03-22T10:31:34;13.90;;;4.77;;
5042;SDS011;2540;50.928;6.856;2024-03-22T10:34:00;12.03;;;6.00;;
5042;SDS011;2540;50.928;6.856;2024-03-22T10:36:28;15.73;;;5.10;;
5042;SDS011;2540;50.928;6.856;2024-03-22T10:38:56;15.67;;;5.30;;
5042;SDS011;2540;50.928;6.856;2024-03-22T10:41:22;13.13;;;6.03;;
5042;SDS011;2540;50.928;6.856;2024-03-22T10:43:47;9.00;;;4.63;;
5042;SDS011;2540;50.928;6.856;2024-03-22T10:46:13;16.83;;;6.90;;
5042;SDS011;2540;50.928;6.856;2024-03-22T10:48:39;16.40;;;6.47;;
5042;SDS011;2540;50.928;6.856;2024-03-22T10:51:05;12.73;;;6.40;;
5042;SDS011;2540;50.928;6.856;2024-03-22T10:53:31;12.90;;;6.60;;
5042;SDS011;2540;50.928;6.856;2024-03-22T10:55:57;11.60;;;5.93;;
5042;SDS011;2540;50.928;6.856;2024-03-22T10:58:27;11.90;;;5.90;;
5042;SDS011;2540;50.928;6.856;2024-03-22T11:00:53;15.80;;;6.83;;
5042;SDS011;2540;50.928;6.856;2024-03-22T11:03:22;9.63;;;6.23;;
5042;SDS011;2540;50.928;6.856;2024-03-22T11:05:49;14.37;;;6.57;;
5042;SDS011;2540;50.928;6.856;2024-03-22T11:10:50;16.87;;;7.13;;
5042;SDS011;2540;50.928;6.856;2024-03-22T11:13:16;20.23;;;5.93;;
5042;SDS011;2540;50.928;6.856;2024-03-22T11:15:41;14.93;;;6.90;;
5042;SDS011;2540;50.928;6.856;2024-03-22T11:18:07;15.20;;;6.80;;
5042;SDS011;2540;50.928;6.856;2024-03-22T11:20:32;16.70;;;7.30;;
5042;SDS011;2540;50.928;6.856;2024-03-22T11:23:01;14.20;;;7.33;;
5042;SDS011;2540;50.928;6.856;2024-03-22T11:25:26;16.63;;;8.37;;
5042;SDS011;2540;50.928;6.856;2024-03-22T11:27:52;16.70;;;8.03;;
5042;SDS011;2540;50.928;6.856;2024-03-22T11:30:19;23.83;;;8.13;;
5042;SDS011;2540;50.928;6.856;2024-03-22T11:32:44;15.97;;;7.77;;
5042;SDS011;2540;50.928;6.856;2024-03-22T11:35:13;17.33;;;8.60;;
5042;SDS011;2540;50.928;6.856;2024-03-22T11:37:39;17.07;;;8.40;;
5042;SDS011;2540;50.928;6.856;2024-03-22T11:40:06;20.83;;;8.87;;
5042;SDS011;2540;50.928;6.856;2024-03-22T11:42:33;22.50;;;8.57;;
5042;SDS011;2540;50.928;6.856;2024-03-22T11:44:59;14.97;;;8.00;;
5042;SDS011;2540;50.928;6.856;2024-03-22T11:47:24;17.90;;;8.10;;
5042;SDS011;2540;50.928;6.856;2024-03-22T11:49:50;12.27;;;7.63;;
5042;SDS011;2540;50.928;6.856;2024-03-22T11:52:15;14.97;;;7.40;;
5042;SDS011;2540;50.928;6.856;2024-03-22T11:54:40;16.30;;;8.07;;
5042;SDS011;2540;50.928;6.856;2024-03-22T11:57:06;17.83;;;8.17;;
5042;SDS011;2540;50.928;6.856;2024-03-22T11:59:32;14.63;;;7.50;;
5042;SDS011;2540;50.928;6.856;2024-03-22T12:01:58;19.30;;;8.20;;
5042;SDS011;2540;50.928;6.856;2024-03-22T12:04:23;20.97;;;8.70;;
5042;SDS011;2540;50.928;6.856;2024-03-22T12:06:49;16.80;;;7.47;;
5042;SDS011;2540;50.928;6.856;2024-03-22T12:09:14;15.67;;;7.73;;
5042;SDS011;2540;50.928;6.856;2024-03-22T12:11:39;15.63;;;8.17;;
5042;SDS011;2540;50.928;6.856;2024-03-22T12:14:05;16.90;;;9.37;;
5042;SDS011;2540;50.928;6.856;2024-03-22T12:16:31;15.00;;;8.47;;
5042;SDS011;2540;50.928;6.856;2024-03-22T12:18:57;22.43;;;8.83;;
5042;SDS011;2540;50.928;6.856;2024-03-22T12:21:22;16.13;;;8.40;;
5042;SDS011;2540;50.928;6.856;2024-03-22T12:23:47;14.03;;;7.70;;
5042;SDS011;2540;50.928;6.856;2024-03-22T12:26:12;13.90;;;7.67;;
5042;SDS011;2540;50.928;6.856;2024-03-22T12:28:38;14.57;;;7.37;;
5042;SDS011;2540;50.928;6.856;2024-03-22T12:31:04;16.50;;;7.80;;
5042;SDS011;2540;50.928;6.856;2024-03-22T12:33:29;17.80;;;8.77;;
5042;SDS011;2540;50.928;6.856;2024-03-22T12:35:54;12.77;;;7.40;;
5042;SDS011;2540;50.928;6.856;2024-03-22T12:38:20;12.97;;;6.60;;
5042;SDS011;2540;50.928;6.856;2024-03-22T12:40:45;19.60;;;7.63;;
5042;SDS011;2540;50.928;6.856;2024-03-22T12:43:11;14.07;;;6.97;;
5042;SDS011;2540;50.928;6.856;2024-03-22T12:45:36;11.40;;;5.70;;
5042;SDS011;2540;50.928;6.856;2024-03-22T12:48:01;12.90;;;6.47;;
5042;SDS011;2540;50.928;6.856;2024-03-22T12:50:27;11.60;;;6.90;;
5042;SDS011;2540;50.928;6.856;2024-03-22T12:52:52;20.77;;;7.10;;
5042;SDS011;2540;50.928;6.856;2024-03-22T12:55:18;14.37;;;7.23;;
5042;SDS011;2540;50.928;6.856;2024-03-22T12:57:43;15.17;;;6.80;;
5042;SDS011;2540;50.928;6.856;2024-03-22T13:00:09;18.17;;;8.17;;
5042;SDS011;2540;50.928;6.856;2024-03-22T13:02:46;25.70;;;8.90;;
5042;SDS011;2540;50.928;6.856;2024-03-22T13:05:15;25.70;;;7.83;;
5042;SDS011;2540;50.928;6.856;2024-03-22T13:07:40;23.50;;;9.03;;
5042;SDS011;2540;50.928;6.856;2024-03-22T13:10:07;15.83;;;7.33;;
5042;SDS011;2540;50.928;6.856;2024-03-22T13:12:35;19.20;;;8.10;;
5042;SDS011;2540;50.928;6.856;2024-03-22T13:15:01;18.10;;;8.47;;
5042;SDS011;2540;50.928;6.856;2024-03-22T13:17:27;19.63;;;8.50;;
5042;SDS011;2540;50.928;6.856;2024-03-22T13:19:52;13.67;;;8.33;;
5042;SDS011;2540;50.928;6.856;2024-03-22T13:22:17;22.20;;;7.83;;
5042;SDS011;2540;50.928;6.856;2024-03-22T13:24:48;13.80;;;8.00;;
5042;SDS011;2540;50.928;6.856;2024-03-22T13:27:30;15.10;;;7.90;;
5042;SDS011;2540;50.928;6.856;2024-03-22T13:29:55;17.00;;;7.97;;
5042;SDS011;2540;50.928;6.856;2024-03-22T13:32:21;20.20;;;9.47;;
5042;SDS011;2540;50.928;6.856;2024-03-22T13:34:46;17.73;;;8.50;;
5042;SDS011;2540;50.928;6.856;2024-03-22T13:37:11;19.03;;;9.50;;
5042;SDS011;2540;50.928;6.856;2024-03-22T13:39:36;13.60;;;8.60;;
5042;SDS011;2540;50.928;6.856;2024-03-22T13:42:02;16.20;;;8.97;;
5042;SDS011;2540;50.928;6.856;2024-03-22T13:44:27;16.73;;;9.17;;
5042;SDS011;2540;50.928;6.856;2024-03-22T13:46:54;21.03;;;9.00;;
5042;SDS011;2540;50.928;6.856;2024-03-22T13:49:20;19.47;;;8.60;;
5042;SDS011;2540;50.928;6.856;2024-03-22T13:51:46;23.20;;;10.20;;
5042;SDS011;2540;50.928;6.856;2024-03-22T13:54:12;18.10;;;9.00;;
5042;SDS011;2540;50.928;6.856;2024-03-22T13:56:37;50.63;;;10.53;;
5042;SDS011;2540;50.928;6.856;2024-03-22T13:59:03;19.70;;;8.33;;
5042;SDS011;2540;50.928;6.856;2024-03-22T14:01:30;27.20;;;10.90;;
5042;SDS011;2540;50.928;6.856;2024-03-22T14:03:55;18.70;;;9.40;;
5042;SDS011;2540;50.928;6.856;2024-03-22T14:06:21;20.67;;;10.37;;
5042;SDS011;2540;50.928;6.856;2024-03-22T14:08:50;25.27;;;10.10;;
5042;SDS011;2540;50.928;6.856;2024-03-22T14:11:28;17.83;;;9.40;;
5042;SDS011;2540;50.928;6.856;2024-03-22T14:13:55;13.83;;;7.80;;
5042;SDS011;2540;50.928;6.856;2024-03-22T14:16:20;24.37;;;9.80;;
5042;SDS011;2540;50.928;6.856;2024-03-22T14:18:46;18.93;;;9.67;;
5042;SDS011;2540;50.928;6.856;2024-03-22T14:21:11;15.93;;;9.33;;
5042;SDS011;2540;50.928;6.856;2024-03-22T14:23:39;20.37;;;9.10;;
5042;SDS011;2540;50.928;6.856;2024-03-22T14:26:04;21.63;;;9.17;;
5042;SDS011;2540;50.928;6.856;2024-03-22T14:28:30;16.13;;;9.27;;
5042;SDS011;2540;50.928;6.856;2024-03-22T14:30:55;19.80;;;9.10;;
5042;SDS011;2540;50.928;6.856;2024-03-22T14:33:21;18.13;;;8.83;;
5042;SDS011;2540;50.928;6.856;2024-03-22T14:35:46;23.20;;;9.73;;
5042;SDS011;2540;50.928;6.856;2024-03-22T14:38:13;19.23;;;8.50;;
5042;SDS011;2540;50.928;6.856;2024-03-22T14:40:38;16.70;;;8.07;;
5042;SDS011;2540;50.928;6.856;2024-03-22T14:43:03;12.13;;;7.10;;
5042;SDS011;2540;50.928;6.856;2024-03-22T14:45:29;13.97;;;6.73;;
5042;SDS011;2540;50.928;6.856;2024-03-22T14:47:55;15.00;;;7.10;;
5042;SDS011;2540;50.928;6.856;2024-03-22T14:50:20;11.43;;;6.63;;
5042;SDS011;2540;50.928;6.856;2024-03-22T14:52:48;20.10;;;7.53;;
5042;SDS011;2540;50.928;6.856;2024-03-22T14:55:14;10.87;;;6.50;;